Moose River, Maine
Current Conditions -  °F | °C
As of 8:00 AM on Tuesday 21 Oct 2014 (Local Time) from CYSC Reporting Station
Light Rain Light Rain  
Wind Chill: 37°   Ceiling: 7000
Heat Index: 41°   Visibility: 9mi
Dew Point: 37°   Wind: 6mph
Humidity: 87%   Direction: 70°ENE
Pressure: 30"   Gusts: NA
Location:  45.7142°N, 70.304°W
Report Text: CYSC 211200Z AUTO 07005KT 9SM -RA SCT043 SCT050 OVC070 05/03 A3000 RMK SLP165
Loading
Personal Weather Stations






























Interactive Weather Map
Tropical Storm Tracking
New forecast layout! Learn more

10-Day Weather Forecast

Advertisements
Track Severe Weather on mobile